createdAt,value
2023-03-06T00:00:53.696Z,98382.75
2023-03-06T00:03:55.483Z,98377.13
2023-03-06T00:06:57.235Z,98387.72
2023-03-06T00:09:58.826Z,98374.00
2023-03-06T00:13:05.260Z,98378.22
2023-03-06T00:16:07.273Z,98363.41
2023-03-06T00:19:09.044Z,98382.28
2023-03-06T00:22:13.995Z,98377.25
2023-03-06T00:25:21.220Z,98382.88
2023-03-06T00:28:22.833Z,98379.41
2023-03-06T00:31:24.517Z,98383.06
2023-03-06T00:34:26.183Z,98375.53
2023-03-06T00:37:27.851Z,98378.91
2023-03-06T00:40:30.666Z,98370.81
2023-03-06T00:43:32.312Z,98367.06
2023-03-06T00:46:33.958Z,98376.84
2023-03-06T00:49:36.809Z,98379.69
2023-03-06T00:52:38.518Z,98379.22
2023-03-06T00:55:40.107Z,98374.66
2023-03-06T00:58:41.832Z,98375.97
2023-03-06T01:01:43.576Z,98361.44
2023-03-06T01:04:46.431Z,98373.59
2023-03-06T01:07:48.191Z,98357.78
2023-03-06T01:10:49.812Z,98355.22
2023-03-06T01:13:51.514Z,98353.13
2023-03-06T01:16:55.003Z,98348.38
2023-03-06T01:19:57.892Z,98336.91
2023-03-06T01:22:59.904Z,98345.72
2023-03-06T01:26:03.074Z,98342.53
2023-03-06T01:29:04.802Z,98321.50
2023-03-06T01:32:07.330Z,98312.41
2023-03-06T01:35:09.738Z,98323.47
2023-03-06T01:38:11.587Z,98323.47
2023-03-06T01:41:15.863Z,98311.81
2023-03-06T01:44:17.712Z,98303.72
2023-03-06T01:47:19.358Z,98309.84
2023-03-06T01:50:20.977Z,98296.28
2023-03-06T01:53:22.873Z,98305.31
2023-03-06T01:56:25.370Z,98305.91
2023-03-06T01:59:28.330Z,98308.28
2023-03-06T02:02:30.669Z,98301.16
2023-03-06T02:05:33.324Z,98300.16
2023-03-06T02:08:35.155Z,98284.25
2023-03-06T02:11:36.964Z,98279.44
2023-03-06T02:14:39.974Z,98287.81
2023-03-06T02:17:43.533Z,98286.53
2023-03-06T02:20:54.540Z,98275.06
2023-03-06T02:24:21.179Z,98276.16
2023-03-06T02:27:25.643Z,98269.25
2023-03-06T02:30:30.974Z,98257.00
2023-03-06T02:33:32.907Z,98263.03
2023-03-06T02:36:40.812Z,98259.88
2023-03-06T02:39:48.148Z,98252.34
2023-03-06T02:42:52.764Z,98251.59
2023-03-06T02:45:54.852Z,98258.78
2023-03-06T02:48:56.557Z,98254.53
2023-03-06T02:51:58.342Z,98259.28
2023-03-06T02:54:59.971Z,98241.97
2023-03-06T02:58:02.366Z,98240.91
2023-03-06T03:01:05.569Z,98227.97
2023-03-06T03:04:07.998Z,98229.06
2023-03-06T03:07:09.750Z,98232.53
2023-03-06T03:10:12.200Z,98228.16
2023-03-06T03:13:13.813Z,98226.25
2023-03-06T03:16:17.133Z,98234.19
2023-03-06T03:19:18.750Z,98211.16
2023-03-06T03:22:21.140Z,98215.31
2023-03-06T03:25:24.976Z,98214.72
2023-03-06T03:28:29.385Z,98208.50
2023-03-06T03:31:32.590Z,98225.69
2023-03-06T03:34:35.722Z,98222.03
2023-03-06T03:37:38.281Z,98227.56
2023-03-06T03:40:40.044Z,98220.56
2023-03-06T03:43:43.097Z,98210.69
2023-03-06T03:46:45.026Z,98198.94
2023-03-06T03:49:51.814Z,98207.41
2023-03-06T03:52:55.049Z,98197.56
2023-03-06T03:55:56.742Z,98199.13
2023-03-06T03:58:58.483Z,98200.03
2023-03-06T04:02:04.986Z,98202.88
2023-03-06T04:05:12.998Z,98206.22
2023-03-06T04:08:15.160Z,98207.34
2023-03-06T04:11:19.866Z,98180.47
2023-03-06T04:14:21.891Z,98198.94
2023-03-06T04:17:23.804Z,98194.22
2023-03-06T04:20:26.593Z,98197.66
2023-03-06T04:23:28.302Z,98184.63
2023-03-06T04:26:30.117Z,98182.84
2023-03-06T04:29:32.182Z,98184.53
2023-03-06T04:32:33.949Z,98185.22
2023-03-06T04:35:36.671Z,98174.97
2023-03-06T04:38:42.786Z,98195.28
2023-03-06T04:41:44.499Z,98181.19
2023-03-06T04:44:46.423Z,98186.00
2023-03-06T04:47:48.221Z,98171.41
2023-03-06T04:50:49.811Z,98179.69
2023-03-06T04:53:52.385Z,98188.09
2023-03-06T04:56:54.045Z,98187.41
2023-03-06T04:59:55.725Z,98196.09
2023-03-06T05:03:01.523Z,98183.44
2023-03-06T05:06:03.144Z,98199.41
2023-03-06T05:09:04.828Z,98176.94
2023-03-06T05:12:06.756Z,98198.06
2023-03-06T05:15:09.134Z,98181.47
2023-03-06T05:18:10.770Z,98194.28
2023-03-06T05:21:12.543Z,98175.13
2023-03-06T05:24:14.220Z,98175.34
2023-03-06T05:27:16.977Z,98170.91
2023-03-06T05:30:21.174Z,98178.91
2023-03-06T05:33:22.828Z,98163.91
2023-03-06T05:36:25.106Z,98174.53
2023-03-06T05:39:27.991Z,98175.84
2023-03-06T05:42:30.982Z,98164.78
2023-03-06T05:45:32.715Z,98166.97
2023-03-06T05:48:35.757Z,98181.84
2023-03-06T05:51:37.382Z,98172.19
2023-03-06T05:54:38.954Z,98167.06
2023-03-06T05:57:40.738Z,98166.84
2023-03-06T06:00:42.352Z,98147.31
2023-03-06T06:03:45.035Z,98171.78
2023-03-06T06:06:46.806Z,98174.16
2023-03-06T06:09:48.425Z,98173.66
2023-03-06T06:12:50.043Z,98184.22
2023-03-06T06:15:51.909Z,98179.50
2023-03-06T06:18:53.517Z,98175.84
2023-03-06T06:21:55.378Z,98177.31
2023-03-06T06:24:57.152Z,98174.03
2023-03-06T06:27:58.819Z,98182.63
2023-03-06T06:31:01.102Z,98189.75
2023-03-06T06:34:04.729Z,98179.88
2023-03-06T06:37:06.659Z,98181.56
2023-03-06T06:40:09.167Z,98179.97
2023-03-06T06:43:11.060Z,98179.50
2023-03-06T06:46:44.629Z,98186.00
2023-03-06T06:49:34.314Z,98194.81
2023-03-06T06:52:36.108Z,98201.59
2023-03-06T06:55:37.914Z,98188.75
2023-03-06T06:58:39.547Z,98207.91
2023-03-06T07:01:41.258Z,98200.03
2023-03-06T07:05:00.297Z,98213.25
2023-03-06T07:08:04.778Z,98215.31
2023-03-06T07:11:10.654Z,98213.44
2023-03-06T07:14:12.421Z,98203.28
2023-03-06T07:17:14.186Z,98216.72
2023-03-06T07:20:15.971Z,98212.94
2023-03-06T07:23:17.652Z,98218.66
2023-03-06T07:26:19.417Z,98214.03
2023-03-06T07:29:21.038Z,98221.53
2023-03-06T07:32:22.803Z,98219.53
2023-03-06T07:35:25.119Z,98221.41
2023-03-06T07:38:26.820Z,98226.44
2023-03-06T07:41:28.492Z,98214.19
2023-03-06T07:44:30.269Z,98218.25
2023-03-06T07:47:32.035Z,98216.97
2023-03-06T07:50:35.029Z,98226.94
2023-03-06T07:53:36.757Z,98223.78
2023-03-06T07:56:38.482Z,98234.16
2023-03-06T07:59:40.179Z,98223.19
2023-03-06T08:02:42.819Z,98228.13
2023-03-06T08:05:44.969Z,98223.38
2023-03-06T08:08:47.862Z,98223.56
2023-03-06T08:11:49.549Z,98234.59
2023-03-06T08:14:51.123Z,98223.16
2023-03-06T08:17:52.953Z,98231.72
2023-03-06T08:21:11.269Z,98218.50
2023-03-06T08:24:16.561Z,98228.34
2023-03-06T08:27:18.246Z,98229.75
2023-03-06T08:30:21.510Z,98215.09
2023-03-06T08:33:23.723Z,98236.13
2023-03-06T08:36:25.779Z,98231.88
2023-03-06T08:39:27.366Z,98230.19
2023-03-06T08:42:29.041Z,98233.72
2023-03-06T08:45:33.114Z,98224.41
2023-03-06T08:48:34.717Z,98244.75
2023-03-06T08:51:36.347Z,98238.25
2023-03-06T08:54:39.231Z,98230.34
2023-03-06T08:57:40.917Z,98245.38
2023-03-06T09:00:43.771Z,98236.56
2023-03-06T09:03:45.930Z,98237.97
2023-03-06T09:06:47.603Z,98247.66
2023-03-06T09:09:49.257Z,98239.28
2023-03-06T09:12:54.434Z,98233.94
2023-03-06T09:15:56.464Z,98250.28
2023-03-06T09:18:58.838Z,98239.88
2023-03-06T09:22:01.076Z,98264.00
2023-03-06T09:25:04.144Z,98256.28
2023-03-06T09:28:11.747Z,98261.50
2023-03-06T09:31:16.709Z,98249.75
2023-03-06T09:34:18.471Z,98270.88
2023-03-06T09:37:20.192Z,98264.78
2023-03-06T09:40:42.877Z,98253.63
2023-03-06T09:43:48.035Z,98262.63
2023-03-06T09:47:05.556Z,98262.91
2023-03-06T09:50:31.682Z,98268.38
2023-03-06T09:54:05.068Z,98262.97
2023-03-06T09:57:18.618Z,98267.72
2023-03-06T10:00:42.988Z,98268.19
2023-03-06T10:03:59.628Z,98274.56
2023-03-06T10:07:08.538Z,98272.19
2023-03-06T10:10:18.489Z,98273.41
2023-03-06T10:13:38.241Z,98272.56
2023-03-06T10:16:40.317Z,98267.13
2023-03-06T10:19:42.486Z,98263.09
2023-03-06T10:23:22.063Z,98269.88
2023-03-06T10:26:33.909Z,98266.13
2023-03-06T10:29:43.672Z,98265.09
2023-03-06T10:32:57.463Z,98261.34
2023-03-06T10:35:59.385Z,98257.38
2023-03-06T10:39:09.555Z,98261.97
2023-03-06T10:42:11.333Z,98248.47
2023-03-06T10:45:17.571Z,98248.22
2023-03-06T10:48:26.026Z,98250.88
2023-03-06T10:51:29.031Z,98255.78
2023-03-06T10:54:34.532Z,98257.50
2023-03-06T10:57:36.126Z,98252.34
2023-03-06T11:00:37.788Z,98249.84
2023-03-06T11:03:39.494Z,98251.63
2023-03-06T11:06:41.432Z,98251.00
2023-03-06T11:09:47.789Z,98254.03
2023-03-06T11:13:21.225Z,98260.50
2023-03-06T11:16:27.359Z,98261.97
2023-03-06T11:19:29.778Z,98253.31
2023-03-06T11:22:31.805Z,98247.44
2023-03-06T11:25:50.207Z,98228.88
2023-03-06T11:29:15.901Z,98233.47
2023-03-06T11:32:25.090Z,98229.09
2023-03-06T11:35:35.748Z,98237.41
2023-03-06T11:38:49.085Z,98223.69
2023-03-06T11:41:57.582Z,98235.09
2023-03-06T11:45:14.616Z,98238.06
2023-03-06T11:48:17.518Z,98227.66
2023-03-06T11:51:23.496Z,98221.06
2023-03-06T11:54:25.169Z,98228.13
2023-03-06T11:57:52.835Z,98211.09
2023-03-06T12:01:15.721Z,98218.19
2023-03-06T12:04:39.945Z,98210.28
2023-03-06T12:07:53.187Z,98218.63
2023-03-06T12:11:01.321Z,98214.72
2023-03-06T12:14:20.910Z,98212.84
2023-03-06T12:17:25.565Z,98219.72
2023-03-06T12:20:47.111Z,98207.47
2023-03-06T12:24:12.996Z,98195.53
2023-03-06T12:27:26.893Z,98197.53
2023-03-06T12:31:12.666Z,98190.00
2023-03-06T12:34:43.696Z,98193.63
2023-03-06T12:37:56.493Z,98175.06
2023-03-06T12:41:16.538Z,98186.25
2023-03-06T12:44:40.243Z,98189.38
2023-03-06T12:47:46.638Z,98178.38
2023-03-06T12:50:50.109Z,98176.94
2023-03-06T12:53:52.282Z,98181.53
2023-03-06T12:56:56.759Z,98172.84
2023-03-06T12:59:58.408Z,98181.03
2023-03-06T13:03:39.373Z,98182.47
2023-03-06T13:06:54.233Z,98178.19
2023-03-06T13:10:01.871Z,98178.69
2023-03-06T13:13:24.585Z,98171.59
2023-03-06T13:16:31.889Z,98181.03
2023-03-06T13:19:33.711Z,98182.47
2023-03-06T13:22:35.807Z,98184.47
2023-03-06T13:25:48.163Z,98183.38
2023-03-06T13:28:54.881Z,98191.44
2023-03-06T13:31:58.029Z,98187.94
2023-03-06T13:34:59.668Z,98181.81
2023-03-06T13:38:01.584Z,98194.56
2023-03-06T13:41:22.216Z,98185.00
2023-03-06T13:44:23.966Z,98182.19
2023-03-06T13:48:01.404Z,98185.19
2023-03-06T13:51:23.975Z,98182.22
2023-03-06T13:54:54.243Z,98181.91
2023-03-06T13:58:11.815Z,98171.97
2023-03-06T14:01:29.306Z,98175.44
2023-03-06T14:04:54.236Z,98181.44
2023-03-06T14:08:18.676Z,98177.94
2023-03-06T14:11:21.406Z,98168.84
2023-03-06T14:14:31.974Z,98174.47
2023-03-06T14:17:38.499Z,98170.38
2023-03-06T14:20:40.124Z,98176.69
2023-03-06T14:23:44.947Z,98171.69
2023-03-06T14:26:49.841Z,98168.56
2023-03-06T14:30:04.278Z,98173.28
2023-03-06T14:33:11.319Z,98172.63
2023-03-06T14:36:16.100Z,98168.09
2023-03-06T14:39:27.213Z,98161.94
2023-03-06T14:42:29.645Z,98163.88
2023-03-06T14:45:31.354Z,98162.78
2023-03-06T14:48:44.431Z,98162.78
2023-03-06T14:51:51.615Z,98157.72
2023-03-06T14:54:53.373Z,98153.50
2023-03-06T14:57:59.611Z,98154.28
2023-03-06T15:01:07.329Z,98145.97
2023-03-06T15:04:22.852Z,98142.97
2023-03-06T15:07:30.487Z,98128.81
2023-03-06T15:10:34.902Z,98137.81
2023-03-06T15:13:36.593Z,98140.16
2023-03-06T15:16:38.295Z,98128.53
2023-03-06T15:19:42.893Z,98129.78
2023-03-06T15:22:53.158Z,98131.38
2023-03-06T15:25:58.868Z,98123.66
2023-03-06T15:29:10.669Z,98135.00
2023-03-06T15:32:13.991Z,98136.56
2023-03-06T15:35:27.537Z,98139.25
2023-03-06T15:38:44.289Z,98134.06
2023-03-06T15:41:45.977Z,98141.59
2023-03-06T15:44:50.700Z,98137.97
2023-03-06T15:47:54.469Z,98128.66
2023-03-06T15:50:56.134Z,98128.00
2023-03-06T15:54:09.809Z,98133.84
2023-03-06T15:57:26.728Z,98132.75
2023-03-06T16:00:32.424Z,98132.44
2023-03-06T16:03:34.017Z,98128.97
2023-03-06T16:06:35.697Z,98120.47
2023-03-06T16:09:37.408Z,98132.28
2023-03-06T16:12:39.206Z,98125.81
2023-03-06T16:15:46.809Z,98140.44
2023-03-06T16:18:48.784Z,98139.78
2023-03-06T16:21:50.389Z,98136.94
2023-03-06T16:24:52.528Z,98131.75
2023-03-06T16:27:58.376Z,98133.13
2023-03-06T16:30:59.989Z,98139.72
2023-03-06T16:34:01.983Z,98147.56
2023-03-06T16:37:03.575Z,98146.47
2023-03-06T16:40:12.380Z,98144.41
2023-03-06T16:43:15.638Z,98159.34
2023-03-06T16:46:23.313Z,98154.00
2023-03-06T16:49:25.480Z,98154.00
2023-03-06T16:52:27.174Z,98157.91
2023-03-06T16:55:28.810Z,98158.81
2023-03-06T16:58:30.586Z,98156.94
2023-03-06T17:01:32.590Z,98170.63
2023-03-06T17:04:34.199Z,98161.25
2023-03-06T17:07:37.449Z,98179.97
2023-03-06T17:10:40.890Z,98176.16
2023-03-06T17:13:42.832Z,98169.97
2023-03-06T17:16:45.659Z,98175.72
2023-03-06T17:19:48.489Z,98185.81
2023-03-06T17:22:50.400Z,98192.41
2023-03-06T17:26:01.478Z,98193.47
2023-03-06T17:29:05.964Z,98191.69
2023-03-06T17:32:08.940Z,98185.50
2023-03-06T17:35:10.654Z,98186.63
2023-03-06T17:38:12.241Z,98197.88
2023-03-06T17:41:14.444Z,98196.13
2023-03-06T17:44:16.540Z,98202.06
2023-03-06T17:47:18.156Z,98203.66
2023-03-06T17:50:20.092Z,98199.69
2023-03-06T17:53:22.351Z,98199.22
2023-03-06T17:56:24.081Z,98189.84
2023-03-06T17:59:25.879Z,98199.53
2023-03-06T18:02:28.068Z,98186.06
2023-03-06T18:05:29.953Z,98209.25
2023-03-06T18:08:32.237Z,98199.97
2023-03-06T18:11:33.982Z,98200.78
2023-03-06T18:14:37.094Z,98207.19
2023-03-06T18:17:38.762Z,98208.41
2023-03-06T18:20:41.369Z,98201.78
2023-03-06T18:23:43.045Z,98195.47
2023-03-06T18:26:44.846Z,98198.72
2023-03-06T18:29:47.017Z,98194.44
2023-03-06T18:32:48.692Z,98196.00
2023-03-06T18:35:50.350Z,98197.66
2023-03-06T18:38:52.262Z,98201.31
2023-03-06T18:41:53.898Z,98203.09
2023-03-06T18:44:55.547Z,98196.94
2023-03-06T18:47:57.250Z,98193.13
2023-03-06T18:51:10.180Z,98203.88
2023-03-06T18:54:11.944Z,98195.97
2023-03-06T18:57:13.626Z,98195.38
2023-03-06T19:00:15.760Z,98202.28
2023-03-06T19:03:17.366Z,98201.38
2023-03-06T19:06:20.376Z,98203.16
2023-03-06T19:09:22.356Z,98209.59
2023-03-06T19:12:24.674Z,98204.84
2023-03-06T19:15:26.462Z,98190.34
2023-03-06T19:18:29.238Z,98201.88
2023-03-06T19:21:31.193Z,98189.84
2023-03-06T19:24:32.988Z,98205.16
2023-03-06T19:27:37.749Z,98197.75
2023-03-06T19:30:42.405Z,98200.91
2023-03-06T19:33:45.026Z,98203.75
2023-03-06T19:36:50.106Z,98199.63
2023-03-06T19:39:51.834Z,98182.94
2023-03-06T19:42:53.541Z,98187.97
2023-03-06T19:45:56.350Z,98184.28
2023-03-06T19:49:05.635Z,98193.38
2023-03-06T19:52:07.654Z,98192.09
2023-03-06T19:55:10.519Z,98175.78
2023-03-06T19:58:12.489Z,98171.56
2023-03-06T20:01:17.330Z,98185.38
2023-03-06T20:04:19.648Z,98177.38
2023-03-06T20:07:21.855Z,98172.53
2023-03-06T20:10:23.597Z,98178.31
2023-03-06T20:16:30.177Z,98177.56
2023-03-06T20:19:31.890Z,98178.03
2023-03-06T20:22:33.534Z,98167.19
2023-03-06T20:25:36.471Z,98171.78
2023-03-06T20:28:39.358Z,98165.69
2023-03-06T20:31:41.179Z,98162.50
2023-03-06T20:34:42.874Z,98159.03
2023-03-06T20:37:44.572Z,98145.34
2023-03-06T20:40:46.503Z,98144.66
2023-03-06T20:43:48.880Z,98162.00
2023-03-06T20:46:52.104Z,98157.78
2023-03-06T20:49:53.865Z,98164.69
2023-03-06T20:52:56.761Z,98162.00
2023-03-06T20:55:58.580Z,98166.59
2023-03-06T20:59:00.440Z,98159.19
2023-03-06T21:02:02.848Z,98158.88
2023-03-06T21:05:04.910Z,98142.59
2023-03-06T21:08:07.288Z,98155.72
2023-03-06T21:11:08.966Z,98153.84
2023-03-06T21:14:12.295Z,98153.84
2023-03-06T21:17:14.015Z,98141.19
2023-03-06T21:20:15.944Z,98124.06
2023-03-06T21:23:17.593Z,98141.09
2023-03-06T21:26:21.441Z,98142.88
2023-03-06T21:29:23.065Z,98145.41
2023-03-06T21:32:24.758Z,98126.34
2023-03-06T21:35:26.518Z,98136.72
2023-03-06T21:38:28.455Z,98134.84
2023-03-06T21:41:32.149Z,98122.88
2023-03-06T21:44:33.988Z,98135.63
2023-03-06T21:47:38.973Z,98137.81
2023-03-06T21:50:41.338Z,98125.88
2023-03-06T21:53:44.179Z,98117.19
2023-03-06T21:56:45.764Z,98117.06
2023-03-06T21:59:47.412Z,98101.78
2023-03-06T22:02:50.011Z,98114.22
2023-03-06T22:05:52.800Z,98119.53
2023-03-06T22:08:56.485Z,98119.25
2023-03-06T22:11:58.328Z,98115.50
2023-03-06T22:15:00.263Z,98125.75
2023-03-06T22:18:01.934Z,98124.47
2023-03-06T22:21:08.421Z,98134.66
2023-03-06T22:24:10.037Z,98105.06
2023-03-06T22:27:11.714Z,98125.19
2023-03-06T22:30:13.723Z,98116.72
2023-03-06T22:33:15.297Z,98124.41
2023-03-06T22:36:17.028Z,98121.25
2023-03-06T22:39:18.770Z,98117.78
2023-03-06T22:42:20.559Z,98103.31
2023-03-06T22:45:22.716Z,98118.59
2023-03-06T22:48:24.300Z,98114.03
2023-03-06T22:51:27.633Z,98101.97
2023-03-06T22:54:29.408Z,98112.22
2023-03-06T22:57:32.144Z,98109.22
2023-03-06T23:00:33.798Z,98094.47
2023-03-06T23:03:37.595Z,98099.78
2023-03-06T23:06:41.712Z,98089.59
2023-03-06T23:09:43.375Z,98101.63
2023-03-06T23:13:03.965Z,98085.72
2023-03-06T23:16:25.399Z,98083.84
2023-03-06T23:19:45.657Z,98086.50
2023-03-06T23:23:05.804Z,98074.97
2023-03-06T23:26:17.222Z,98081.16
2023-03-06T23:29:18.903Z,98077.84
2023-03-06T23:32:20.627Z,98068.25
2023-03-06T23:35:22.339Z,98074.72
2023-03-06T23:38:23.965Z,98081.94
2023-03-06T23:41:25.870Z,98076.59
2023-03-06T23:44:28.346Z,98079.47
2023-03-06T23:47:34.181Z,98092.00
2023-03-06T23:50:39.048Z,98101.41
2023-03-06T23:53:40.719Z,98090.25
2023-03-06T23:56:42.322Z,98090.75
2023-03-06T23:59:44.377Z,98088.38
